sensor_id;sensor_type;location;lat;lon;timestamp;P1;durP1;ratioP1;P2;durP2;ratioP2
19691;SDS011;42748;50.016;19.890;2024-02-14T00:00:48;66.83;;;31.30;;
19691;SDS011;42748;50.016;19.890;2024-02-14T00:03:16;77.50;;;33.23;;
19691;SDS011;42748;50.016;19.890;2024-02-14T00:05:43;72.23;;;32.27;;
19691;SDS011;42748;50.016;19.890;2024-02-14T00:08:12;77.63;;;33.57;;
19691;SDS011;42748;50.016;19.890;2024-02-14T00:10:41;70.27;;;32.50;;
19691;SDS011;42748;50.016;19.890;2024-02-14T00:13:11;73.27;;;32.57;;
19691;SDS011;42748;50.016;19.890;2024-02-14T00:15:39;75.03;;;33.60;;
19691;SDS011;42748;50.016;19.890;2024-02-14T00:18:07;80.37;;;34.93;;
19691;SDS011;42748;50.016;19.890;2024-02-14T00:20:35;77.07;;;33.57;;
19691;SDS011;42748;50.016;19.890;2024-02-14T00:23:02;78.13;;;32.93;;
19691;SDS011;42748;50.016;19.890;2024-02-14T00:25:30;77.97;;;34.37;;
19691;SDS011;42748;50.016;19.890;2024-02-14T00:27:58;78.93;;;33.60;;
19691;SDS011;42748;50.016;19.890;2024-02-14T00:30:30;73.70;;;32.43;;
19691;SDS011;42748;50.016;19.890;2024-02-14T00:32:58;76.63;;;32.90;;
19691;SDS011;42748;50.016;19.890;2024-02-14T00:35:26;74.33;;;32.03;;
19691;SDS011;42748;50.016;19.890;2024-02-14T00:37:54;70.97;;;32.43;;
19691;SDS011;42748;50.016;19.890;2024-02-14T00:40:22;71.33;;;31.03;;
19691;SDS011;42748;50.016;19.890;2024-02-14T00:42:50;71.60;;;31.70;;
19691;SDS011;42748;50.016;19.890;2024-02-14T00:45:18;64.40;;;29.90;;
19691;SDS011;42748;50.016;19.890;2024-02-14T00:47:45;68.23;;;31.70;;
19691;SDS011;42748;50.016;19.890;2024-02-14T00:50:13;60.97;;;28.47;;
19691;SDS011;42748;50.016;19.890;2024-02-14T00:52:41;64.27;;;28.70;;
19691;SDS011;42748;50.016;19.890;2024-02-14T00:55:09;66.63;;;29.33;;
19691;SDS011;42748;50.016;19.890;2024-02-14T00:57:37;65.77;;;29.07;;
19691;SDS011;42748;50.016;19.890;2024-02-14T01:00:06;64.73;;;29.40;;
19691;SDS011;42748;50.016;19.890;2024-02-14T01:02:33;60.73;;;28.13;;
19691;SDS011;42748;50.016;19.890;2024-02-14T01:05:02;65.23;;;28.87;;
19691;SDS011;42748;50.016;19.890;2024-02-14T01:07:31;61.33;;;29.20;;
19691;SDS011;42748;50.016;19.890;2024-02-14T01:09:59;63.77;;;29.57;;
19691;SDS011;42748;50.016;19.890;2024-02-14T01:12:27;69.83;;;30.50;;
19691;SDS011;42748;50.016;19.890;2024-02-14T01:14:56;72.40;;;32.40;;
19691;SDS011;42748;50.016;19.890;2024-02-14T01:17:24;69.93;;;32.57;;
19691;SDS011;42748;50.016;19.890;2024-02-14T01:19:52;70.97;;;31.93;;
19691;SDS011;42748;50.016;19.890;2024-02-14T01:22:20;68.93;;;31.83;;
19691;SDS011;42748;50.016;19.890;2024-02-14T01:24:48;70.40;;;31.63;;
19691;SDS011;42748;50.016;19.890;2024-02-14T01:27:15;70.53;;;31.97;;
19691;SDS011;42748;50.016;19.890;2024-02-14T01:29:43;69.23;;;31.43;;
19691;SDS011;42748;50.016;19.890;2024-02-14T01:32:11;72.07;;;31.03;;
19691;SDS011;42748;50.016;19.890;2024-02-14T01:34:39;65.10;;;31.10;;
19691;SDS011;42748;50.016;19.890;2024-02-14T01:37:09;68.87;;;31.23;;
19691;SDS011;42748;50.016;19.890;2024-02-14T01:39:36;73.20;;;31.97;;
19691;SDS011;42748;50.016;19.890;2024-02-14T01:42:04;72.90;;;32.27;;
19691;SDS011;42748;50.016;19.890;2024-02-14T01:44:34;72.90;;;32.60;;
19691;SDS011;42748;50.016;19.890;2024-02-14T01:47:03;70.53;;;32.50;;
19691;SDS011;42748;50.016;19.890;2024-02-14T01:49:33;71.53;;;33.23;;
19691;SDS011;42748;50.016;19.890;2024-02-14T01:52:01;78.40;;;33.90;;
19691;SDS011;42748;50.016;19.890;2024-02-14T01:54:29;75.37;;;35.07;;
19691;SDS011;42748;50.016;19.890;2024-02-14T01:56:57;76.37;;;33.57;;
19691;SDS011;42748;50.016;19.890;2024-02-14T01:59:25;76.57;;;35.27;;
19691;SDS011;42748;50.016;19.890;2024-02-14T02:01:53;81.87;;;36.57;;
19691;SDS011;42748;50.016;19.890;2024-02-14T02:04:21;77.70;;;36.23;;
19691;SDS011;42748;50.016;19.890;2024-02-14T02:06:49;84.50;;;37.20;;
19691;SDS011;42748;50.016;19.890;2024-02-14T02:09:16;83.83;;;38.13;;
19691;SDS011;42748;50.016;19.890;2024-02-14T02:11:45;83.17;;;37.57;;
19691;SDS011;42748;50.016;19.890;2024-02-14T02:14:15;85.47;;;37.50;;
19691;SDS011;42748;50.016;19.890;2024-02-14T02:16:46;84.93;;;37.37;;
19691;SDS011;42748;50.016;19.890;2024-02-14T02:19:13;82.20;;;38.13;;
19691;SDS011;42748;50.016;19.890;2024-02-14T02:21:42;89.43;;;39.20;;
19691;SDS011;42748;50.016;19.890;2024-02-14T02:24:13;83.23;;;37.40;;
19691;SDS011;42748;50.016;19.890;2024-02-14T02:26:41;85.40;;;38.73;;
19691;SDS011;42748;50.016;19.890;2024-02-14T02:29:08;91.80;;;39.27;;
19691;SDS011;42748;50.016;19.890;2024-02-14T02:31:36;82.67;;;37.63;;
19691;SDS011;42748;50.016;19.890;2024-02-14T02:34:05;86.03;;;38.87;;
19691;SDS011;42748;50.016;19.890;2024-02-14T02:36:34;91.87;;;37.93;;
19691;SDS011;42748;50.016;19.890;2024-02-14T02:39:02;80.97;;;36.27;;
19691;SDS011;42748;50.016;19.890;2024-02-14T02:41:31;84.13;;;37.33;;
19691;SDS011;42748;50.016;19.890;2024-02-14T02:44:00;83.23;;;36.53;;
19691;SDS011;42748;50.016;19.890;2024-02-14T02:46:28;83.40;;;37.47;;
19691;SDS011;42748;50.016;19.890;2024-02-14T02:48:56;85.60;;;36.50;;
19691;SDS011;42748;50.016;19.890;2024-02-14T02:51:25;86.03;;;36.97;;
19691;SDS011;42748;50.016;19.890;2024-02-14T02:53:54;79.90;;;36.07;;
19691;SDS011;42748;50.016;19.890;2024-02-14T02:56:22;86.63;;;37.40;;
19691;SDS011;42748;50.016;19.890;2024-02-14T02:58:54;82.47;;;37.57;;
19691;SDS011;42748;50.016;19.890;2024-02-14T03:01:22;82.97;;;37.27;;
19691;SDS011;42748;50.016;19.890;2024-02-14T03:03:52;80.53;;;37.17;;
19691;SDS011;42748;50.016;19.890;2024-02-14T03:06:20;89.60;;;37.47;;
19691;SDS011;42748;50.016;19.890;2024-02-14T03:08:47;81.27;;;37.60;;
19691;SDS011;42748;50.016;19.890;2024-02-14T03:11:15;85.23;;;38.40;;
19691;SDS011;42748;50.016;19.890;2024-02-14T03:13:43;78.13;;;35.70;;
19691;SDS011;42748;50.016;19.890;2024-02-14T03:16:11;76.27;;;36.13;;
19691;SDS011;42748;50.016;19.890;2024-02-14T03:18:41;74.90;;;35.40;;
19691;SDS011;42748;50.016;19.890;2024-02-14T03:21:09;77.80;;;36.23;;
19691;SDS011;42748;50.016;19.890;2024-02-14T03:23:38;89.80;;;38.73;;
19691;SDS011;42748;50.016;19.890;2024-02-14T03:26:12;84.67;;;37.77;;
19691;SDS011;42748;50.016;19.890;2024-02-14T03:28:40;87.90;;;40.57;;
19691;SDS011;42748;50.016;19.890;2024-02-14T03:31:08;89.63;;;40.53;;
19691;SDS011;42748;50.016;19.890;2024-02-14T03:33:38;94.00;;;42.03;;
19691;SDS011;42748;50.016;19.890;2024-02-14T03:36:06;91.30;;;39.73;;
19691;SDS011;42748;50.016;19.890;2024-02-14T03:38:35;93.47;;;41.00;;
19691;SDS011;42748;50.016;19.890;2024-02-14T03:41:02;95.17;;;40.47;;
19691;SDS011;42748;50.016;19.890;2024-02-14T03:43:30;96.63;;;41.20;;
19691;SDS011;42748;50.016;19.890;2024-02-14T03:45:58;83.77;;;38.97;;
19691;SDS011;42748;50.016;19.890;2024-02-14T03:48:26;85.43;;;37.70;;
19691;SDS011;42748;50.016;19.890;2024-02-14T03:50:54;80.27;;;37.27;;
19691;SDS011;42748;50.016;19.890;2024-02-14T03:53:22;86.20;;;39.77;;
19691;SDS011;42748;50.016;19.890;2024-02-14T03:55:50;94.40;;;41.33;;
19691;SDS011;42748;50.016;19.890;2024-02-14T03:58:19;92.77;;;40.47;;
19691;SDS011;42748;50.016;19.890;2024-02-14T04:00:50;91.40;;;41.30;;
19691;SDS011;42748;50.016;19.890;2024-02-14T04:03:19;97.23;;;40.80;;
19691;SDS011;42748;50.016;19.890;2024-02-14T04:05:46;96.13;;;41.50;;
19691;SDS011;42748;50.016;19.890;2024-02-14T04:08:14;100.47;;;43.10;;
19691;SDS011;42748;50.016;19.890;2024-02-14T04:10:42;99.37;;;42.73;;
19691;SDS011;42748;50.016;19.890;2024-02-14T04:13:11;98.03;;;42.40;;
19691;SDS011;42748;50.016;19.890;2024-02-14T04:15:38;94.03;;;41.83;;
19691;SDS011;42748;50.016;19.890;2024-02-14T04:18:06;95.00;;;41.97;;
19691;SDS011;42748;50.016;19.890;2024-02-14T04:20:34;91.53;;;42.07;;
19691;SDS011;42748;50.016;19.890;2024-02-14T04:23:02;97.10;;;42.53;;
19691;SDS011;42748;50.016;19.890;2024-02-14T04:25:33;90.47;;;40.30;;
19691;SDS011;42748;50.016;19.890;2024-02-14T04:28:02;93.70;;;40.67;;
19691;SDS011;42748;50.016;19.890;2024-02-14T04:30:30;92.37;;;40.53;;
19691;SDS011;42748;50.016;19.890;2024-02-14T04:32:58;90.00;;;40.13;;
19691;SDS011;42748;50.016;19.890;2024-02-14T04:35:26;88.70;;;39.97;;
19691;SDS011;42748;50.016;19.890;2024-02-14T04:37:54;89.30;;;40.60;;
19691;SDS011;42748;50.016;19.890;2024-02-14T04:40:22;90.80;;;40.73;;
19691;SDS011;42748;50.016;19.890;2024-02-14T04:42:49;85.30;;;40.73;;
19691;SDS011;42748;50.016;19.890;2024-02-14T04:45:18;97.77;;;42.13;;
19691;SDS011;42748;50.016;19.890;2024-02-14T04:47:45;94.63;;;42.37;;
19691;SDS011;42748;50.016;19.890;2024-02-14T04:50:13;90.80;;;41.70;;
19691;SDS011;42748;50.016;19.890;2024-02-14T04:52:41;97.27;;;42.70;;
19691;SDS011;42748;50.016;19.890;2024-02-14T04:55:09;86.60;;;40.67;;
19691;SDS011;42748;50.016;19.890;2024-02-14T04:57:37;89.90;;;39.87;;
19691;SDS011;42748;50.016;19.890;2024-02-14T05:00:05;94.80;;;39.17;;
19691;SDS011;42748;50.016;19.890;2024-02-14T05:02:34;86.13;;;37.87;;
19691;SDS011;42748;50.016;19.890;2024-02-14T05:05:01;84.47;;;37.77;;
19691;SDS011;42748;50.016;19.890;2024-02-14T05:07:29;88.60;;;37.07;;
19691;SDS011;42748;50.016;19.890;2024-02-14T05:09:58;82.73;;;37.03;;
19691;SDS011;42748;50.016;19.890;2024-02-14T05:12:26;81.43;;;36.53;;
19691;SDS011;42748;50.016;19.890;2024-02-14T05:14:54;89.27;;;38.83;;
19691;SDS011;42748;50.016;19.890;2024-02-14T05:17:22;89.07;;;38.60;;
19691;SDS011;42748;50.016;19.890;2024-02-14T05:19:50;91.53;;;38.23;;
19691;SDS011;42748;50.016;19.890;2024-02-14T05:22:17;83.37;;;37.23;;
19691;SDS011;42748;50.016;19.890;2024-02-14T05:24:45;88.13;;;39.37;;
19691;SDS011;42748;50.016;19.890;2024-02-14T05:27:13;82.63;;;36.13;;
19691;SDS011;42748;50.016;19.890;2024-02-14T05:29:41;80.40;;;35.30;;
19691;SDS011;42748;50.016;19.890;2024-02-14T05:32:08;73.77;;;34.47;;
19691;SDS011;42748;50.016;19.890;2024-02-14T05:34:36;82.23;;;36.00;;
19691;SDS011;42748;50.016;19.890;2024-02-14T05:37:04;90.87;;;38.57;;
19691;SDS011;42748;50.016;19.890;2024-02-14T05:39:32;80.87;;;35.70;;
19691;SDS011;42748;50.016;19.890;2024-02-14T05:42:00;82.80;;;35.97;;
19691;SDS011;42748;50.016;19.890;2024-02-14T05:44:29;82.07;;;37.00;;
19691;SDS011;42748;50.016;19.890;2024-02-14T05:46:57;80.20;;;34.20;;
19691;SDS011;42748;50.016;19.890;2024-02-14T05:49:25;75.37;;;34.97;;
19691;SDS011;42748;50.016;19.890;2024-02-14T05:51:53;92.27;;;37.03;;
19691;SDS011;42748;50.016;19.890;2024-02-14T05:54:21;82.63;;;37.23;;
19691;SDS011;42748;50.016;19.890;2024-02-14T05:56:49;83.33;;;36.60;;
19691;SDS011;42748;50.016;19.890;2024-02-14T05:59:16;75.70;;;34.20;;
19691;SDS011;42748;50.016;19.890;2024-02-14T06:01:44;85.67;;;37.50;;
19691;SDS011;42748;50.016;19.890;2024-02-14T06:04:12;88.87;;;39.97;;
19691;SDS011;42748;50.016;19.890;2024-02-14T06:06:39;81.10;;;37.03;;
19691;SDS011;42748;50.016;19.890;2024-02-14T06:09:07;76.97;;;34.20;;
19691;SDS011;42748;50.016;19.890;2024-02-14T06:11:38;79.97;;;34.30;;
19691;SDS011;42748;50.016;19.890;2024-02-14T06:14:06;80.90;;;35.17;;
19691;SDS011;42748;50.016;19.890;2024-02-14T06:16:34;82.23;;;36.70;;
19691;SDS011;42748;50.016;19.890;2024-02-14T06:19:03;71.77;;;32.87;;
19691;SDS011;42748;50.016;19.890;2024-02-14T06:21:32;72.83;;;33.83;;
19691;SDS011;42748;50.016;19.890;2024-02-14T06:24:00;74.00;;;34.23;;
19691;SDS011;42748;50.016;19.890;2024-02-14T06:26:31;74.00;;;34.00;;
19691;SDS011;42748;50.016;19.890;2024-02-14T06:29:00;81.80;;;36.37;;
19691;SDS011;42748;50.016;19.890;2024-02-14T06:31:33;91.87;;;37.60;;
19691;SDS011;42748;50.016;19.890;2024-02-14T06:34:01;90.20;;;38.80;;
19691;SDS011;42748;50.016;19.890;2024-02-14T06:36:29;91.13;;;39.97;;
19691;SDS011;42748;50.016;19.890;2024-02-14T06:38:57;73.43;;;33.07;;
19691;SDS011;42748;50.016;19.890;2024-02-14T06:41:25;79.93;;;34.27;;
19691;SDS011;42748;50.016;19.890;2024-02-14T06:43:53;72.53;;;34.70;;
19691;SDS011;42748;50.016;19.890;2024-02-14T06:46:21;80.57;;;37.00;;
19691;SDS011;42748;50.016;19.890;2024-02-14T06:48:49;81.73;;;36.17;;
19691;SDS011;42748;50.016;19.890;2024-02-14T06:51:18;91.07;;;35.13;;
19691;SDS011;42748;50.016;19.890;2024-02-14T06:53:49;86.40;;;35.13;;
19691;SDS011;42748;50.016;19.890;2024-02-14T06:56:17;77.77;;;35.00;;
19691;SDS011;42748;50.016;19.890;2024-02-14T06:58:44;71.57;;;34.47;;
19691;SDS011;42748;50.016;19.890;2024-02-14T07:01:13;70.22;;;33.60;;
19691;SDS011;42748;50.016;19.890;2024-02-14T07:03:42;69.55;;;33.30;;
19691;SDS011;42748;50.016;19.890;2024-02-14T07:06:12;71.53;;;33.03;;
19691;SDS011;42748;50.016;19.890;2024-02-14T07:08:42;67.53;;;33.47;;
19691;SDS011;42748;50.016;19.890;2024-02-14T07:11:10;69.80;;;33.92;;
19691;SDS011;42748;50.016;19.890;2024-02-14T07:13:38;63.35;;;32.47;;
19691;SDS011;42748;50.016;19.890;2024-02-14T07:16:05;62.45;;;32.85;;
19691;SDS011;42748;50.016;19.890;2024-02-14T07:18:37;62.63;;;32.35;;
19691;SDS011;42748;50.016;19.890;2024-02-14T07:21:05;66.13;;;33.33;;
19691;SDS011;42748;50.016;19.890;2024-02-14T07:23:34;65.93;;;32.30;;
19691;SDS011;42748;50.016;19.890;2024-02-14T07:26:02;63.47;;;32.67;;
19691;SDS011;42748;50.016;19.890;2024-02-14T07:28:30;63.35;;;31.92;;
19691;SDS011;42748;50.016;19.890;2024-02-14T07:30:58;65.53;;;33.05;;
19691;SDS011;42748;50.016;19.890;2024-02-14T07:33:28;59.08;;;31.58;;
19691;SDS011;42748;50.016;19.890;2024-02-14T07:35:56;61.88;;;31.35;;
19691;SDS011;42748;50.016;19.890;2024-02-14T07:38:23;59.78;;;30.95;;
19691;SDS011;42748;50.016;19.890;2024-02-14T07:40:51;57.67;;;31.13;;
19691;SDS011;42748;50.016;19.890;2024-02-14T07:43:19;55.05;;;31.10;;
19691;SDS011;42748;50.016;19.890;2024-02-14T07:45:47;58.95;;;30.67;;
19691;SDS011;42748;50.016;19.890;2024-02-14T07:48:15;52.00;;;30.63;;
19691;SDS011;42748;50.016;19.890;2024-02-14T07:50:43;49.35;;;30.85;;
19691;SDS011;42748;50.016;19.890;2024-02-14T07:53:11;54.28;;;30.08;;
19691;SDS011;42748;50.016;19.890;2024-02-14T07:55:39;51.35;;;28.48;;
19691;SDS011;42748;50.016;19.890;2024-02-14T07:58:07;50.67;;;27.75;;
19691;SDS011;42748;50.016;19.890;2024-02-14T08:00:34;55.15;;;27.10;;
19691;SDS011;42748;50.016;19.890;2024-02-14T08:03:02;50.42;;;28.63;;
19691;SDS011;42748;50.016;19.890;2024-02-14T08:05:32;48.88;;;27.73;;
19691;SDS011;42748;50.016;19.890;2024-02-14T08:08:00;50.15;;;28.75;;
19691;SDS011;42748;50.016;19.890;2024-02-14T08:10:28;55.83;;;29.15;;
19691;SDS011;42748;50.016;19.890;2024-02-14T08:12:57;54.55;;;29.25;;
19691;SDS011;42748;50.016;19.890;2024-02-14T08:15:25;48.78;;;26.25;;
19691;SDS011;42748;50.016;19.890;2024-02-14T08:17:53;46.45;;;27.30;;
19691;SDS011;42748;50.016;19.890;2024-02-14T08:20:28;45.78;;;25.90;;
19691;SDS011;42748;50.016;19.890;2024-02-14T08:22:56;45.70;;;26.92;;
19691;SDS011;42748;50.016;19.890;2024-02-14T08:25:23;44.75;;;25.38;;
19691;SDS011;42748;50.016;19.890;2024-02-14T08:27:51;42.33;;;24.60;;
19691;SDS011;42748;50.016;19.890;2024-02-14T08:30:19;43.75;;;25.55;;
19691;SDS011;42748;50.016;19.890;2024-02-14T08:32:47;43.70;;;26.05;;
19691;SDS011;42748;50.016;19.890;2024-02-14T08:35:15;45.67;;;24.58;;
19691;SDS011;42748;50.016;19.890;2024-02-14T08:37:43;41.58;;;24.35;;
19691;SDS011;42748;50.016;19.890;2024-02-14T08:40:11;46.05;;;25.98;;
19691;SDS011;42748;50.016;19.890;2024-02-14T08:42:39;42.33;;;24.90;;
19691;SDS011;42748;50.016;19.890;2024-02-14T08:45:07;41.65;;;24.50;;
19691;SDS011;42748;50.016;19.890;2024-02-14T08:47:36;40.92;;;24.35;;
19691;SDS011;42748;50.016;19.890;2024-02-14T08:50:04;46.63;;;25.75;;
19691;SDS011;42748;50.016;19.890;2024-02-14T08:52:32;45.63;;;25.00;;
19691;SDS011;42748;50.016;19.890;2024-02-14T08:55:00;45.03;;;24.73;;
19691;SDS011;42748;50.016;19.890;2024-02-14T08:57:27;41.60;;;24.27;;
19691;SDS011;42748;50.016;19.890;2024-02-14T08:59:58;43.13;;;25.55;;
19691;SDS011;42748;50.016;19.890;2024-02-14T09:02:27;46.85;;;26.80;;
19691;SDS011;42748;50.016;19.890;2024-02-14T09:04:55;45.38;;;26.67;;
19691;SDS011;42748;50.016;19.890;2024-02-14T09:07:24;48.55;;;27.95;;
19691;SDS011;42748;50.016;19.890;2024-02-14T09:09:52;42.63;;;25.02;;
19691;SDS011;42748;50.016;19.890;2024-02-14T09:12:20;25.67;;;15.02;;
19691;SDS011;42748;50.016;19.890;2024-02-14T09:14:48;24.67;;;13.20;;
19691;SDS011;42748;50.016;19.890;2024-02-14T09:17:16;24.45;;;12.25;;
19691;SDS011;42748;50.016;19.890;2024-02-14T09:19:44;22.50;;;12.85;;
19691;SDS011;42748;50.016;19.890;2024-02-14T09:22:12;23.25;;;13.02;;
19691;SDS011;42748;50.016;19.890;2024-02-14T09:24:45;19.05;;;10.90;;
19691;SDS011;42748;50.016;19.890;2024-02-14T09:27:12;22.88;;;11.63;;
19691;SDS011;42748;50.016;19.890;2024-02-14T09:29:41;6.82;;;3.53;;
19691;SDS011;42748;50.016;19.890;2024-02-14T09:32:10;5.60;;;2.80;;
19691;SDS011;42748;50.016;19.890;2024-02-14T09:34:38;7.75;;;4.30;;
19691;SDS011;42748;50.016;19.890;2024-02-14T09:37:06;12.32;;;5.00;;
19691;SDS011;42748;50.016;19.890;2024-02-14T09:39:34;5.40;;;3.33;;
19691;SDS011;42748;50.016;19.890;2024-02-14T09:42:05;6.18;;;3.30;;
19691;SDS011;42748;50.016;19.890;2024-02-14T09:44:35;4.70;;;2.88;;
19691;SDS011;42748;50.016;19.890;2024-02-14T09:47:07;7.25;;;2.80;;
19691;SDS011;42748;50.016;19.890;2024-02-14T09:49:35;8.05;;;3.80;;
19691;SDS011;42748;50.016;19.890;2024-02-14T09:52:06;5.90;;;3.67;;
19691;SDS011;42748;50.016;19.890;2024-02-14T09:54:36;7.68;;;3.90;;
19691;SDS011;42748;50.016;19.890;2024-02-14T09:57:06;13.63;;;6.07;;
19691;SDS011;42748;50.016;19.890;2024-02-14T09:59:34;10.85;;;3.95;;
19691;SDS011;42748;50.016;19.890;2024-02-14T10:02:02;8.13;;;4.18;;
19691;SDS011;42748;50.016;19.890;2024-02-14T10:04:30;8.10;;;3.92;;
19691;SDS011;42748;50.016;19.890;2024-02-14T10:06:58;9.13;;;4.15;;
19691;SDS011;42748;50.016;19.890;2024-02-14T10:09:25;9.77;;;4.10;;
19691;SDS011;42748;50.016;19.890;2024-02-14T10:11:53;9.35;;;4.22;;
19691;SDS011;42748;50.016;19.890;2024-02-14T10:14:23;9.55;;;4.00;;
19691;SDS011;42748;50.016;19.890;2024-02-14T10:16:51;8.73;;;3.90;;
19691;SDS011;42748;50.016;19.890;2024-02-14T10:19:18;6.60;;;3.50;;
19691;SDS011;42748;50.016;19.890;2024-02-14T10:21:57;6.82;;;3.45;;
19691;SDS011;42748;50.016;19.890;2024-02-14T10:24:25;6.97;;;3.55;;
19691;SDS011;42748;50.016;19.890;2024-02-14T10:26:54;6.25;;;2.90;;
19691;SDS011;42748;50.016;19.890;2024-02-14T10:29:24;6.07;;;2.80;;
19691;SDS011;42748;50.016;19.890;2024-02-14T10:31:52;8.20;;;2.60;;
19691;SDS011;42748;50.016;19.890;2024-02-14T10:34:23;5.13;;;2.38;;
19691;SDS011;42748;50.016;19.890;2024-02-14T10:36:52;4.15;;;2.30;;
19691;SDS011;42748;50.016;19.890;2024-02-14T10:39:20;4.55;;;2.28;;
19691;SDS011;42748;50.016;19.890;2024-02-14T10:41:49;5.82;;;2.10;;
19691;SDS011;42748;50.016;19.890;2024-02-14T10:44:17;4.75;;;2.05;;
19691;SDS011;42748;50.016;19.890;2024-02-14T10:46:46;5.97;;;1.98;;
19691;SDS011;42748;50.016;19.890;2024-02-14T10:49:14;4.63;;;2.25;;
19691;SDS011;42748;50.016;19.890;2024-02-14T10:51:43;3.55;;;2.10;;
19691;SDS011;42748;50.016;19.890;2024-02-14T10:54:11;4.20;;;1.85;;
19691;SDS011;42748;50.016;19.890;2024-02-14T10:56:41;7.60;;;2.40;;
19691;SDS011;42748;50.016;19.890;2024-02-14T10:59:13;4.18;;;1.90;;
19691;SDS011;42748;50.016;19.890;2024-02-14T11:01:41;2.95;;;2.05;;
19691;SDS011;42748;50.016;19.890;2024-02-14T11:04:10;5.35;;;2.08;;
19691;SDS011;42748;50.016;19.890;2024-02-14T11:06:45;6.40;;;2.22;;
19691;SDS011;42748;50.016;19.890;2024-02-14T11:09:13;4.05;;;2.15;;
19691;SDS011;42748;50.016;19.890;2024-02-14T11:11:42;5.70;;;2.50;;
19691;SDS011;42748;50.016;19.890;2024-02-14T11:14:14;4.25;;;2.13;;
19691;SDS011;42748;50.016;19.890;2024-02-14T11:16:44;5.00;;;2.13;;
19691;SDS011;42748;50.016;19.890;2024-02-14T11:19:12;3.72;;;2.10;;
19691;SDS011;42748;50.016;19.890;2024-02-14T11:21:44;9.32;;;2.97;;
19691;SDS011;42748;50.016;19.890;2024-02-14T11:24:14;8.60;;;2.72;;
19691;SDS011;42748;50.016;19.890;2024-02-14T11:26:46;8.82;;;2.83;;
19691;SDS011;42748;50.016;19.890;2024-02-14T11:29:15;5.38;;;2.67;;
19691;SDS011;42748;50.016;19.890;2024-02-14T11:31:48;6.03;;;3.03;;
19691;SDS011;42748;50.016;19.890;2024-02-14T11:34:17;6.28;;;3.05;;
19691;SDS011;42748;50.016;19.890;2024-02-14T11:36:44;6.85;;;3.30;;
19691;SDS011;42748;50.016;19.890;2024-02-14T11:39:12;7.32;;;3.30;;
19691;SDS011;42748;50.016;19.890;2024-02-14T11:41:40;6.50;;;2.90;;
19691;SDS011;42748;50.016;19.890;2024-02-14T11:44:12;6.72;;;3.10;;
19691;SDS011;42748;50.016;19.890;2024-02-14T11:46:40;6.63;;;2.97;;
19691;SDS011;42748;50.016;19.890;2024-02-14T11:49:08;5.65;;;2.45;;
19691;SDS011;42748;50.016;19.890;2024-02-14T11:51:36;7.75;;;3.00;;
19691;SDS011;42748;50.016;19.890;2024-02-14T11:54:05;5.35;;;2.40;;
19691;SDS011;42748;50.016;19.890;2024-02-14T11:56:36;7.40;;;2.95;;
19691;SDS011;42748;50.016;19.890;2024-02-14T11:59:06;8.18;;;3.30;;
19691;SDS011;42748;50.016;19.890;2024-02-14T12:01:34;6.43;;;2.95;;
19691;SDS011;42748;50.016;19.890;2024-02-14T12:04:04;9.55;;;3.60;;
19691;SDS011;42748;50.016;19.890;2024-02-14T12:06:34;5.72;;;2.85;;
19691;SDS011;42748;50.016;19.890;2024-02-14T12:09:02;6.75;;;2.80;;
19691;SDS011;42748;50.016;19.890;2024-02-14T12:11:36;5.18;;;2.63;;
19691;SDS011;42748;50.016;19.890;2024-02-14T12:14:07;7.18;;;2.85;;
19691;SDS011;42748;50.016;19.890;2024-02-14T12:16:36;5.20;;;2.50;;
19691;SDS011;42748;50.016;19.890;2024-02-14T12:19:08;6.50;;;2.97;;
19691;SDS011;42748;50.016;19.890;2024-02-14T12:21:38;6.65;;;2.78;;
19691;SDS011;42748;50.016;19.890;2024-02-14T12:24:10;4.88;;;2.42;;
19691;SDS011;42748;50.016;19.890;2024-02-14T12:26:40;6.40;;;2.53;;
19691;SDS011;42748;50.016;19.890;2024-02-14T12:29:10;8.15;;;2.70;;
19691;SDS011;42748;50.016;19.890;2024-02-14T12:31:40;6.90;;;3.10;;
19691;SDS011;42748;50.016;19.890;2024-02-14T12:34:11;5.78;;;2.97;;
19691;SDS011;42748;50.016;19.890;2024-02-14T12:36:40;7.30;;;2.70;;
19691;SDS011;42748;50.016;19.890;2024-02-14T12:39:08;6.00;;;2.60;;
19691;SDS011;42748;50.016;19.890;2024-02-14T12:41:39;7.00;;;2.80;;
19691;SDS011;42748;50.016;19.890;2024-02-14T12:44:07;5.45;;;2.85;;
19691;SDS011;42748;50.016;19.890;2024-02-14T12:46:35;5.50;;;2.80;;
19691;SDS011;42748;50.016;19.890;2024-02-14T12:49:05;6.55;;;2.92;;
19691;SDS011;42748;50.016;19.890;2024-02-14T12:51:33;5.45;;;2.97;;
19691;SDS011;42748;50.016;19.890;2024-02-14T12:54:03;5.30;;;2.80;;
19691;SDS011;42748;50.016;19.890;2024-02-14T12:56:32;5.22;;;2.83;;
19691;SDS011;42748;50.016;19.890;2024-02-14T12:59:00;9.05;;;2.83;;
19691;SDS011;42748;50.016;19.890;2024-02-14T13:01:29;6.38;;;2.55;;
19691;SDS011;42748;50.016;19.890;2024-02-14T13:03:57;5.15;;;2.80;;
19691;SDS011;42748;50.016;19.890;2024-02-14T13:06:26;3.70;;;2.55;;
19691;SDS011;42748;50.016;19.890;2024-02-14T13:08:54;3.95;;;2.60;;
19691;SDS011;42748;50.016;19.890;2024-02-14T13:11:22;5.25;;;2.83;;
19691;SDS011;42748;50.016;19.890;2024-02-14T13:13:50;6.72;;;2.90;;
19691;SDS011;42748;50.016;19.890;2024-02-14T13:16:18;7.32;;;3.15;;
19691;SDS011;42748;50.016;19.890;2024-02-14T13:18:48;5.50;;;2.92;;
19691;SDS011;42748;50.016;19.890;2024-02-14T13:21:16;6.40;;;2.92;;
19691;SDS011;42748;50.016;19.890;2024-02-14T13:23:44;4.90;;;2.70;;
19691;SDS011;42748;50.016;19.890;2024-02-14T13:26:12;6.22;;;3.30;;
19691;SDS011;42748;50.016;19.890;2024-02-14T13:28:40;7.53;;;3.70;;
19691;SDS011;42748;50.016;19.890;2024-02-14T13:31:08;7.90;;;3.20;;
19691;SDS011;42748;50.016;19.890;2024-02-14T13:33:37;6.85;;;3.00;;
19691;SDS011;42748;50.016;19.890;2024-02-14T13:36:05;6.95;;;3.50;;
19691;SDS011;42748;50.016;19.890;2024-02-14T13:38:33;9.50;;;4.00;;
19691;SDS011;42748;50.016;19.890;2024-02-14T13:41:01;8.02;;;3.80;;
19691;SDS011;42748;50.016;19.890;2024-02-14T13:43:29;7.05;;;3.78;;
19691;SDS011;42748;50.016;19.890;2024-02-14T13:45:57;8.60;;;3.90;;
19691;SDS011;42748;50.016;19.890;2024-02-14T13:48:25;5.22;;;3.33;;
19691;SDS011;42748;50.016;19.890;2024-02-14T13:50:52;8.18;;;4.05;;
19691;SDS011;42748;50.016;19.890;2024-02-14T13:53:20;7.32;;;4.03;;
19691;SDS011;42748;50.016;19.890;2024-02-14T13:55:49;6.43;;;3.38;;
19691;SDS011;42748;50.016;19.890;2024-02-14T13:58:18;8.75;;;3.75;;
19691;SDS011;42748;50.016;19.890;2024-02-14T14:00:46;7.60;;;3.88;;
19691;SDS011;42748;50.016;19.890;2024-02-14T14:03:14;7.85;;;3.42;;
19691;SDS011;42748;50.016;19.890;2024-02-14T14:05:44;6.32;;;3.80;;
19691;SDS011;42748;50.016;19.890;2024-02-14T14:08:12;6.80;;;4.00;;
19691;SDS011;42748;50.016;19.890;2024-02-14T14:10:40;7.95;;;3.75;;
19691;SDS011;42748;50.016;19.890;2024-02-14T14:13:09;8.75;;;3.50;;
19691;SDS011;42748;50.016;19.890;2024-02-14T14:15:37;6.38;;;3.85;;
19691;SDS011;42748;50.016;19.890;2024-02-14T14:18:05;8.65;;;3.83;;
19691;SDS011;42748;50.016;19.890;2024-02-14T14:20:35;5.80;;;3.72;;
19691;SDS011;42748;50.016;19.890;2024-02-14T14:23:03;11.88;;;3.65;;
19691;SDS011;42748;50.016;19.890;2024-02-14T14:25:31;10.43;;;4.18;;